Canefield Airport

Cloudy and hazy with light showers
27oC (81oF)

Cloudy and hazy with light showers


Winds: East south easterly @ 02kts / 04km/h

Humidity: 74%

Barometric Pressure: 1017 mb

Accumulated Rainfall for July: 93.1 mm

Updated: 7:00 local time (11:00 UTC)

Douglas-Charles Airport

Cloudy with adjacent showers and slight haze
27oC (81oF)

Cloudy with adjacent showers and slight haze


Winds: East south easterly @ 11kts / 20km/h

Humidity: 84%

Barometric Pressure: 1018 mb

Accumulated Rainfall for July: 120.1 mm

Updated: 7:00 local time (11:00 UTC)

Satellite Imagery

Satellite Imagery
Click image for larger view. (Source: National Hurricane Center).

Aviation Routine Report (METAR)

Douglas-Charles: METAR TDPD 171100Z 11011KT 9999 BKN015 27/24 Q1018=
Canefield: METAR TDCF 171100Z 11002KT 9999 -SHRA BKN018 27/22 Q1017=